Terminal Aerodrome Forecast
Issued by NWS Portland, ME

Home | Current Version | Previous Version | Text Only | Print | Product List | Glossary On
Versions: 1 2 3 4 5 6 7 8 9 10 11 12 13 14 15 16 17 18 19 20
082
FTUS41 KGYX 211120
TAFPWM
TAF
KPWM 211120Z 2112/2212 VRB04KT P6SM SCT250
     FM211800 15004KT P6SM SCT120 BKN250
     FM220300 18004KT P6SM SCT080 BKN120
     FM220800 23005KT P6SM BKN050 OVC080=

USA.gov is the U.S. government's official web portal to all federal, state and local government web resources and services.